Pagina principale
METAR-TAF:

METAR-TAF

Aeroporti :

Aeroporto di N'Djamena-Hassan Djamous

N'Djamena, Ciad

latitudine: 12-08N, longitudine: 015-02E, altezza: 295 m

Osservazione

Il bollettino è stato emesso 32 minuti fa, alle 14:00 UTC
Vento 4 kt da direzioni variabili
Temperature 35°C
Umidità 9%
Pressione 1009 hPa
Visibilità 10 km o più
nessuna nube inferiore a 1500 m e nessun cumulonembo

METAR: FTTJ 111400Z VRB04KT CAVOK 35/M03 Q1009 NOSIG

Ora: 15:32 (14:32 UTC)

Previsione

Il bollettino è stato emesso 3 ore e 32 minuti fa, alle 11:00 UTC
Previsione valida dal 11 alle 12 UTC al 12 alle 18 UTC
Vento 10 kt da nord/nord-est
Visibilità: 8000 m
Temporaneamente
dal 11 alle 16 UTC al 12 alle 07 UTC
Vento 4 kt da nord/nord-ovest
Temporaneamente
dal 12 alle 03 UTC al 12 alle 07 UTC
Visibilità: 4000 m
foschia

TAF: FTTJ 111100Z 1112/1218 02010KT 8000 NSC TEMPO 1116/1207 34004KT TEMPO 1203/1207 4000 HZ

Osservazioni e previsioni meteorologiche di più di 4000 aeroporti (messaggi METAR e TAF).

Le stazioni disponibili sono rappresentate dai dischi gialli e rossi sulla carta.

Puntare il mouse per vedere il nome della stazione.

Clicca sopra per visualizzare le osservazioni e previsioni meteorologiche.

Per cambiare la mappa : fare clic sui pulsanti verdi con una croce nera per ingrandire, il pulsante verde con un trattino per diminuire, o sulla freccia verde per le mappe adiacenti.


METAR-TAF: